Time;durP1;ratioP1;P1;durP2;ratioP2;P2;SDS_P1;SDS_P2;PMS_P1;PMS_P2;Temp;Humidity;BMP_temperature;BMP_pressure;BME280_temperature;BME280_humidity;BME280_pressure;Samples;Min_cycle;Max_cycle;Signal;HPM_P1;HPM_P2
2021/01/28 00:03:47;;;;;;;;;;;1.90;99.90;;;0.77;92.47;95397.53;10368707;28;2364;-84
2021/01/28 00:08:49;;;;;;;;;;;1.90;99.90;;;0.79;92.34;95395.47;10406701;28;2005;-83
2021/01/28 00:13:51;;;;;;;;;;;3.50;99.90;;;0.81;92.20;95389.94;10393176;28;2431;-84
2021/01/28 00:18:53;;;;;;;;;;;1.80;99.90;;;0.83;91.96;95393.19;10359713;28;2783;-85
2021/01/28 00:23:55;;;;;;;;;;;3.20;99.90;;;0.84;91.91;95397.44;10384762;28;2799;-83
2021/01/28 00:28:57;;;;;;;;;;;1.90;99.90;;;0.82;92.09;95386.25;10409531;28;2305;-81
2021/01/28 00:33:58;;;;;;;;;;;2.40;99.90;;;0.78;92.34;95382.47;10379593;28;2286;-82
2021/01/28 00:39:00;;;;;;;;;;;2.70;99.90;;;0.82;92.01;95383.63;10359285;28;2524;-82
2021/01/28 00:44:06;;;;;;;;;;;1.90;99.90;;;0.82;91.93;95383.63;10374527;28;2288;-84
2021/01/28 00:49:08;;;;;;;;;;;1.90;99.90;;;0.85;91.78;95371.78;10376746;28;2241;-84
2021/01/28 00:54:11;;;;;;;;;;;3.00;99.90;;;0.84;91.95;95371.00;10379632;28;2424;-82
2021/01/28 00:59:13;;;;;;;;;;;3.00;99.90;;;0.84;91.87;95371.00;10368589;28;2353;-82
2021/01/28 01:04:14;;;;;;;;;;;3.60;99.90;;;0.86;91.94;95368.91;10384803;28;2339;-84
2021/01/28 01:09:16;;;;;;;;;;;1.90;99.90;;;0.89;91.84;95365.84;10395267;28;2395;-85
2021/01/28 01:14:18;;;;;;;;;;;3.00;99.90;;;0.92;92.00;95373.31;10378032;28;2636;-85
2021/01/28 01:19:20;;;;;;;;;;;1.90;99.90;;;0.90;91.90;95364.81;10373858;28;2375;-82
2021/01/28 01:24:24;;;;;;;;;;;2.00;99.90;;;0.95;91.85;95367.56;10369804;28;2322;-84
2021/01/28 01:29:26;;;;;;;;;;;2.00;99.90;;;0.97;91.56;95373.47;10365947;28;2299;-84
2021/01/28 01:34:28;;;;;;;;;;;2.30;99.90;;;0.97;91.65;95370.81;10366078;28;2440;-86
2021/01/28 01:39:30;;;;;;;;;;;2.10;99.90;;;1.03;91.58;95369.13;10356568;28;2405;-85
2021/01/28 01:44:32;;;;;;;;;;;2.50;99.90;;;1.04;91.57;95376.84;10376307;28;2592;-86
2021/01/28 01:49:33;;;;;;;;;;;2.10;99.90;;;1.06;91.46;95366.03;10361305;28;2381;-84
2021/01/28 01:54:35;;;;;;;;;;;2.20;99.90;;;1.13;91.55;95358.00;10365877;28;2468;-85
2021/01/28 01:59:37;;;;;;;;;;;2.10;99.90;;;1.13;91.08;95360.63;10381642;28;2540;-85
2021/01/28 02:04:39;;;;;;;;;;;2.20;99.90;;;1.19;91.57;95362.38;10373963;28;2362;-84
2021/01/28 02:09:41;;;;;;;;;;;2.70;99.90;;;1.18;91.37;95350.19;10368891;28;2471;-84
2021/01/28 02:14:43;;;;;;;;;;;2.40;99.90;;;1.19;91.29;95344.66;10370562;28;2259;-85
2021/01/28 02:19:45;;;;;;;;;;;2.20;99.90;;;1.19;90.93;95338.56;10364352;28;2402;-85
2021/01/28 02:24:47;;;;;;;;;;;2.20;99.90;;;1.15;91.11;95329.47;10365428;28;2385;-85
2021/01/28 02:29:49;;;;;;;;;;;2.30;99.90;;;1.07;91.61;95334.03;10379542;28;2413;-85
2021/01/28 02:34:51;;;;;;;;;;;2.20;99.90;;;1.11;91.54;95328.28;10345588;28;2461;-86
2021/01/28 02:39:52;;;;;;;;;;;3.20;99.90;;;1.10;92.11;95326.69;10377375;28;2513;-84
2021/01/28 02:44:56;;;;;;;;;;;2.10;99.90;;;1.08;92.51;95324.25;10367582;28;2498;-84
2021/01/28 02:49:58;;;;;;;;;;;2.10;99.90;;;1.15;92.49;95318.88;10377075;28;2477;-84
2021/01/28 02:55:00;;;;;;;;;;;4.10;99.90;;;1.14;92.21;95323.34;10363417;28;2405;-83
2021/01/28 03:00:04;;;;;;;;;;;2.20;99.90;;;1.20;92.26;95325.09;10355389;28;2418;-83
2021/01/28 03:05:06;;;;;;;;;;;3.90;99.90;;;1.21;92.34;95307.34;10384476;28;2274;-84
2021/01/28 03:10:08;;;;;;;;;;;2.20;99.90;;;1.22;92.07;95301.06;10383716;28;2339;-85
2021/01/28 03:15:10;;;;;;;;;;;2.20;99.90;;;1.25;92.28;95293.44;10381899;28;2357;-84
2021/01/28 03:20:12;;;;;;;;;;;4.10;99.90;;;1.24;92.20;95286.53;10402275;28;2004;-84
2021/01/28 03:25:14;;;;;;;;;;;4.30;99.90;;;1.28;91.78;95277.13;10410784;28;2278;-84
2021/01/28 03:30:16;;;;;;;;;;;2.40;99.90;;;1.31;91.60;95275.84;10415988;28;2422;-85
2021/01/28 03:35:20;;;;;;;;;;;2.40;99.90;;;1.30;91.99;95268.94;10405454;28;2359;-84
2021/01/28 03:40:22;;;;;;;;;;;3.40;99.90;;;1.32;91.92;95274.81;10405043;28;1945;-84
2021/01/28 03:45:27;;;;;;;;;;;4.00;99.90;;;1.40;91.64;95274.50;10391264;28;1959;-86
2021/01/28 03:50:32;;;;;;;;;;;2.40;99.90;;;1.39;91.59;95278.16;10386806;28;2202;-86
2021/01/28 03:55:34;;;;;;;;;;;5.00;99.90;;;1.41;91.31;95264.72;10389557;28;2335;-83
2021/01/28 04:00:37;;;;;;;;;;;3.90;99.90;;;1.34;91.47;95254.22;10369557;28;2345;-84
2021/01/28 04:05:39;;;;;;;;;;;4.70;99.90;;;1.41;91.63;95248.81;10414842;28;2477;-85
2021/01/28 04:10:41;;;;;;;;;;;2.40;99.90;;;1.41;91.62;95248.81;10406740;28;2403;-84
2021/01/28 04:15:50;;;;;;;;;;;3.30;99.90;;;1.44;91.43;95229.81;10392296;28;2387;-84
2021/01/28 04:20:52;;;;;;;;;;;3.00;99.90;;;1.42;91.99;95224.75;10358406;28;2454;-84
2021/01/28 04:25:54;;;;;;;;;;;4.20;99.90;;;1.41;91.66;95209.91;10382900;28;2375;-85
2021/01/28 04:30:56;;;;;;;;;;;3.50;99.90;;;1.43;92.09;95209.66;10375131;28;2293;-85
2021/01/28 04:35:58;;;;;;;;;;;2.90;99.90;;;1.46;91.98;95204.69;10388723;28;2237;-84
2021/01/28 04:40:59;;;;;;;;;;;2.50;99.90;;;1.48;91.48;95197.34;10375728;28;1902;-83
2021/01/28 04:46:03;;;;;;;;;;;3.50;99.90;;;1.48;91.52;95184.09;10369016;28;2686;-82
2021/01/28 04:51:05;;;;;;;;;;;3.40;99.90;;;1.50;91.63;95174.06;10405989;28;2234;-83
2021/01/28 04:56:08;;;;;;;;;;;3.20;99.90;;;1.50;91.91;95168.78;10387457;28;2312;-83
2021/01/28 05:01:09;;;;;;;;;;;3.70;99.90;;;1.43;92.26;95138.16;10359901;28;2398;-84
2021/01/28 05:06:11;;;;;;;;;;;2.60;99.90;;;1.33;92.32;95131.59;10371020;28;2405;-85
2021/01/28 05:11:14;;;;;;;;;;;4.80;99.90;;;1.32;92.78;95108.78;10368945;28;2315;-86
2021/01/28 05:16:16;;;;;;;;;;;3.00;99.90;;;1.31;93.27;95103.75;10375658;28;2204;-86
2021/01/28 05:21:18;;;;;;;;;;;2.40;99.90;;;1.34;93.27;95090.06;10363301;28;2274;-84
2021/01/28 05:26:19;;;;;;;;;;;3.30;99.90;;;1.40;93.29;95094.41;10384307;28;1927;-85
2021/01/28 05:31:21;;;;;;;;;;;3.10;99.90;;;1.43;93.08;95079.91;10366003;28;2270;-84
2021/01/28 05:36:24;;;;;;;;;;;4.10;99.90;;;1.45;93.14;95075.16;10390548;28;2274;-83
2021/01/28 05:41:26;;;;;;;;;;;3.60;99.90;;;1.50;93.18;95067.31;10372442;28;2270;-84
2021/01/28 05:46:28;;;;;;;;;;;3.50;99.90;;;1.53;93.49;95069.53;10385770;28;2309;-85
2021/01/28 05:51:30;;;;;;;;;;;2.60;99.90;;;1.60;92.96;95057.75;10383568;28;2255;-86
2021/01/28 05:56:33;;;;;;;;;;;3.30;99.90;;;1.66;92.92;95056.00;10395345;28;2313;-86
2021/01/28 06:01:35;;;;;;;;;;;2.70;99.90;;;1.70;92.87;95040.44;10391344;28;2249;-85
2021/01/28 06:06:37;;;;;;;;;;;3.10;99.90;;;1.75;92.73;95037.88;10421879;28;2388;-85
2021/01/28 06:11:40;;;;;;;;;;;2.80;99.90;;;1.79;92.65;95045.13;10415627;28;2289;-85
2021/01/28 06:16:43;;;;;;;;;;;3.30;99.90;;;1.85;93.17;95048.69;10384278;28;2340;-83
2021/01/28 06:21:46;;;;;;;;;;;3.20;99.90;;;1.91;92.41;95047.75;10414140;28;2423;-84
2021/01/28 06:26:47;;;;;;;;;;;2.90;99.90;;;1.93;92.74;95026.28;10396649;28;2280;-84
2021/01/28 06:31:49;;;;;;;;;;;3.50;99.90;;;1.97;93.00;95030.84;10398445;28;2290;-85
2021/01/28 06:36:51;;;;;;;;;;;3.70;99.90;;;1.97;92.80;95012.31;10415972;28;2408;-86
2021/01/28 06:41:53;;;;;;;;;;;3.10;99.90;;;2.00;92.81;95008.38;10414275;28;2278;-85
2021/01/28 06:46:55;;;;;;;;;;;3.50;99.90;;;2.08;93.15;95014.09;10403942;28;2304;-84
2021/01/28 06:51:57;;;;;;;;;;;4.60;99.90;;;2.09;92.41;95002.44;10406663;28;2329;-84
2021/01/28 06:56:58;;;;;;;;;;;3.20;99.90;;;2.14;92.69;94997.22;10412952;28;2249;-84
2021/01/28 07:02:00;;;;;;;;;;;3.20;99.90;;;2.20;92.78;94999.97;10395380;28;1939;-84
2021/01/28 07:07:05;;;;;;;;;;;5.10;99.90;;;2.21;92.68;94999.72;10384968;28;1390;-83
2021/01/28 07:12:07;;;;;;;;;;;3.20;99.90;;;2.32;92.74;94995.41;10389667;28;2250;-84
2021/01/28 07:17:09;;;;;;;;;;;3.90;99.90;;;2.33;93.14;94981.91;10409132;28;2253;-85
2021/01/28 07:22:12;;;;;;;;;;;4.90;99.90;;;2.42;93.00;94979.66;10397328;28;2354;-85
2021/01/28 07:27:14;;;;;;;;;;;4.70;99.90;;;2.49;92.77;94979.50;10413781;28;2293;-84
2021/01/28 07:32:15;;;;;;;;;;;5.40;99.90;;;2.52;92.55;94973.69;10394191;28;2320;-84
2021/01/28 07:37:20;;;;;;;;;;;3.50;99.90;;;2.47;93.29;94969.09;10394918;28;2019;-85
2021/01/28 07:42:23;;;;;;;;;;;5.00;99.90;;;2.52;92.70;94953.28;10388551;28;1987;-85
2021/01/28 07:47:25;;;;;;;;;;;3.50;99.90;;;2.52;92.55;94942.66;10377480;28;2333;-83
2021/01/28 07:52:27;;;;;;;;;;;3.60;99.90;;;2.59;92.91;94943.28;10391258;28;2171;-84
2021/01/28 07:57:29;;;;;;;;;;;3.60;99.90;;;2.63;92.74;94928.50;10398970;28;2152;-84
2021/01/28 08:02:31;;;;;;;;;;;3.70;99.90;;;2.67;93.21;94926.97;10409640;28;2312;-84
2021/01/28 08:07:36;;;;;;;;;;;3.70;99.90;;;2.78;92.97;94916.47;10407413;28;2396;-85
2021/01/28 08:12:37;;;;;;;;;;;3.80;99.90;;;2.90;92.45;94919.81;10413316;28;1954;-82
2021/01/28 08:17:39;;;;;;;;;;;3.90;99.90;;;2.93;91.81;94908.72;10407926;28;2297;-85
2021/01/28 08:22:42;;;;;;;;;;;4.00;99.90;;;3.01;92.46;94892.38;10387190;28;2366;-84
2021/01/28 08:27:44;;;;;;;;;;;5.00;99.90;;;3.04;92.11;94897.16;10399763;28;2195;-84
2021/01/28 08:32:59;;;;;;;;;;;4.00;99.90;;;3.04;92.66;94872.47;10398885;28;2219;-83
2021/01/28 08:38:03;;;;;;;;;;;4.10;99.90;;;3.05;92.34;94866.91;10394799;28;2142;-85
2021/01/28 08:43:06;;;;;;;;;;;4.10;99.90;;;3.02;92.35;94859.44;10373579;28;2183;-85
2021/01/28 08:48:10;;;;;;;;;;;4.10;99.90;;;3.14;92.49;94848.69;10364348;28;2388;-84
2021/01/28 08:53:14;;;;;;;;;;;4.10;99.90;;;3.04;91.78;94849.38;10365171;28;2353;-85
2021/01/28 08:58:16;;;;;;;;;;;4.10;99.90;;;3.02;92.29;94832.91;10391668;28;2221;-85
2021/01/28 09:03:19;;;;;;;;;;;5.50;99.90;;;3.07;92.23;94817.03;10394935;28;2634;-84
2021/01/28 09:08:26;;;;;;;;;;;4.20;99.90;;;3.13;91.90;94825.84;10396112;28;1618;-84
2021/01/28 09:13:48;;;;;;;;;;;4.10;99.90;;;3.18;91.19;94812.59;10423160;28;1644;-84
2021/01/28 09:18:50;;;;;;;;;;;4.80;99.90;;;3.32;91.78;94813.81;10390195;28;2383;-83
2021/01/28 09:23:52;;;;;;;;;;;4.50;99.90;;;3.28;91.96;94812.72;10385488;28;2166;-84
2021/01/28 09:28:54;;;;;;;;;;;4.30;99.90;;;3.30;92.45;94815.13;10367956;28;1979;-86
2021/01/28 09:33:56;;;;;;;;;;;4.30;99.90;;;3.31;91.87;94806.09;10389119;28;2031;-87
2021/01/28 09:38:57;;;;;;;;;;;4.30;99.90;;;3.30;92.30;94805.28;10378869;28;1920;-87
2021/01/28 09:44:00;;;;;;;;;;;5.50;99.90;;;3.29;92.35;94794.91;10396520;28;1875;-87
2021/01/28 09:49:06;;;;;;;;;;;4.30;99.90;;;3.21;92.75;94786.34;10395576;28;2269;-87
2021/01/28 09:54:08;;;;;;;;;;;4.30;99.90;;;3.23;93.26;94773.63;10400965;28;2112;-87
2021/01/28 09:59:13;;;;;;;;;;;5.60;99.90;;;3.29;93.63;94761.19;10400788;28;1895;-88
2021/01/28 10:04:15;;;;;;;;;;;5.70;99.90;;;3.29;93.44;94742.59;10379931;28;1604;-85
2021/01/28 10:09:17;;;;;;;;;;;5.30;99.90;;;3.39;93.94;94737.38;10404687;28;2333;-87
2021/01/28 10:14:19;;;;;;;;;;;4.40;99.90;;;3.34;93.29;94712.63;10380286;28;2008;-82
2021/01/28 10:19:21;;;;;;;;;;;5.70;99.90;;;3.35;93.20;94707.06;10385576;28;2195;-83
2021/01/28 10:24:23;;;;;;;;;;;5.50;99.90;;;3.39;93.33;94691.44;10397770;28;2202;-83
2021/01/28 10:29:25;;;;;;;;;;;5.10;99.90;;;3.46;93.66;94670.75;10372822;28;2293;-83
2021/01/28 10:34:27;;;;;;;;;;;4.50;99.90;;;3.48;93.77;94658.00;10386710;28;2272;-82
2021/01/28 10:39:28;;;;;;;;;;;6.20;99.90;;;3.55;93.12;94652.47;10386786;28;2356;-81
2021/01/28 10:44:30;;;;;;;;;;;4.60;99.90;;;3.55;93.95;94642.63;10391676;28;2249;-83
2021/01/28 10:49:32;;;;;;;;;;;4.60;99.90;;;3.65;93.70;94640.03;10390378;28;2422;-83
2021/01/28 10:54:34;;;;;;;;;;;5.90;99.90;;;3.64;93.30;94622.50;10370302;28;2051;-84
2021/01/28 10:59:37;;;;;;;;;;;4.70;99.90;;;3.58;93.40;94626.19;10375191;28;2436;-83
2021/01/28 11:04:41;;;;;;;;;;;5.60;99.90;;;3.57;93.73;94611.31;10379481;28;2214;-83
2021/01/28 11:09:43;;;;;;;;;;;5.90;99.90;;;3.59;93.67;94619.81;10366895;28;2308;-83
2021/01/28 11:14:45;;;;;;;;;;;4.60;99.90;;;3.54;93.74;94601.19;10374486;28;2337;-82
2021/01/28 11:19:49;;;;;;;;;;;5.20;99.90;;;3.46;93.61;94586.53;10387741;28;2352;-82
2021/01/28 11:24:51;;;;;;;;;;;6.30;99.90;;;3.50;93.88;94561.06;10397177;28;2377;-84
2021/01/28 11:29:54;;;;;;;;;;;4.50;99.90;;;3.47;93.95;94558.91;10379398;28;2425;-83
2021/01/28 11:34:58;;;;;;;;;;;5.30;99.90;;;3.51;93.85;94545.91;10367545;28;2300;-83
2021/01/28 11:40:04;;;;;;;;;;;4.50;99.90;;;3.46;94.18;94529.94;10374098;28;2381;-81
2021/01/28 11:45:06;;;;;;;;;;;5.50;99.90;;;3.44;94.21;94519.59;10376958;28;2285;-82
2021/01/28 11:50:07;;;;;;;;;;;5.30;99.90;;;3.49;94.49;94516.13;10363044;28;2293;-83
2021/01/28 11:55:09;;;;;;;;;;;6.10;99.90;;;3.57;94.79;94497.06;10376195;28;2399;-83
2021/01/28 12:00:12;;;;;;;;;;;5.40;99.90;;;3.59;94.54;94491.47;10366923;28;2277;-83
2021/01/28 12:05:14;;;;;;;;;;;4.70;99.90;;;3.66;94.43;94490.16;10377141;28;2721;-83
2021/01/28 12:10:16;;;;;;;;;;;5.50;99.90;;;3.74;94.74;94486.97;10372190;28;2739;-81
2021/01/28 12:15:21;;;;;;;;;;;4.70;99.90;;;3.81;94.67;94468.13;10374711;28;2183;-83
2021/01/28 12:20:24;;;;;;;;;;;4.80;99.90;;;3.91;94.13;94456.72;10398854;28;2261;-82
2021/01/28 12:25:25;;;;;;;;;;;5.80;99.90;;;4.00;94.97;94439.19;10395969;28;2266;-83
2021/01/28 12:30:28;;;;;;;;;;;5.30;99.90;;;4.12;94.83;94426.41;10388063;28;2412;-81
2021/01/28 12:35:29;;;;;;;;;;;5.50;99.90;;;4.25;94.47;94417.09;10388211;28;2305;-83
2021/01/28 12:40:31;;;;;;;;;;;5.20;99.90;;;4.45;94.44;94389.69;10406534;28;2292;-82
2021/01/28 12:45:33;;;;;;;;;;;5.30;99.90;;;4.57;94.27;94369.69;10394299;28;2265;-83
2021/01/28 12:50:35;;;;;;;;;;;6.60;99.90;;;4.63;94.13;94365.16;10398652;28;2327;-83
2021/01/28 12:55:36;;;;;;;;;;;5.80;99.90;;;4.70;94.53;94359.56;10393285;28;2321;-83
2021/01/28 13:00:38;;;;;;;;;;;6.30;99.90;;;4.82;93.98;94363.50;10397999;28;2447;-83
2021/01/28 13:05:47;;;;;;;;;;;5.80;99.90;;;4.78;93.84;94367.81;10411294;28;2221;-82
2021/01/28 13:10:49;;;;;;;;;;;5.80;99.90;;;4.77;94.28;94355.56;10393288;28;2242;-83
2021/01/28 13:15:50;;;;;;;;;;;6.20;99.90;;;4.91;94.45;94357.66;10391256;28;2287;-82
2021/01/28 13:20:52;;;;;;;;;;;5.80;99.90;;;5.14;93.74;94346.34;10387644;28;2437;-84
2021/01/28 13:25:54;;;;;;;;;;;6.00;99.90;;;5.15;92.83;94334.59;10400647;28;2393;-82
2021/01/28 13:30:56;;;;;;;;;;;6.10;99.90;;;5.20;92.81;94334.59;10389636;28;2396;-84
2021/01/28 13:35:58;;;;;;;;;;;6.20;99.90;;;5.25;92.61;94334.56;10404574;28;2222;-83
2021/01/28 13:41:04;;;;;;;;;;;6.20;99.90;;;5.32;92.70;94313.75;10380936;28;1883;-82
2021/01/28 13:46:06;;;;;;;;;;;6.30;99.90;;;5.40;92.59;94310.47;10389917;28;2288;-83
2021/01/28 13:51:08;;;;;;;;;;;6.40;99.90;;;5.49;92.53;94296.59;10386903;28;2435;-84
2021/01/28 13:56:10;;;;;;;;;;;6.50;99.90;;;5.43;91.97;94287.84;10377359;28;2328;-82
2021/01/28 14:01:12;;;;;;;;;;;6.50;99.90;;;5.44;91.69;94286.75;10376134;28;2249;-82
2021/01/28 14:06:15;;;;;;;;;;;6.50;99.90;;;5.52;91.38;94280.03;10370854;28;1545;-85
2021/01/28 14:11:16;;;;;;;;;;;6.50;99.90;;;5.59;91.82;94281.28;10376538;28;2350;-85
2021/01/28 14:16:18;;;;;;;;;;;6.60;99.90;;;5.61;91.83;94281.03;10410679;28;1990;-85
2021/01/28 14:21:20;;;;;;;;;;;6.60;99.90;;;5.61;91.93;94276.50;10422370;28;1960;-85
2021/01/28 14:26:22;;;;;;;;;;;6.60;99.90;;;5.61;92.89;94268.50;10413555;28;2175;-84
2021/01/28 14:31:25;;;;;;;;;;;6.70;99.90;;;5.60;93.15;94264.25;10380064;28;2277;-83
2021/01/28 14:36:28;;;;;;;;;;;6.60;99.90;;;5.64;93.47;94275.94;10378690;28;2159;-85
2021/01/28 14:41:29;;;;;;;;;;;6.70;99.90;;;5.64;93.49;94256.47;10372479;28;2198;-84
2021/01/28 14:46:31;;;;;;;;;;;6.70;99.90;;;5.59;93.43;94259.19;10368874;28;2116;-83
2021/01/28 14:51:33;;;;;;;;;;;6.70;99.90;;;5.62;93.71;94253.31;10371054;28;2338;-81
2021/01/28 14:56:35;;;;;;;;;;;6.70;99.90;;;5.65;93.60;94250.88;10375120;28;2297;-84
2021/01/28 15:01:37;;;;;;;;;;;6.70;99.90;;;5.69;93.62;94264.44;10393043;28;2328;-84
2021/01/28 15:06:39;;;;;;;;;;;6.70;99.90;;;5.66;93.88;94241.00;10379635;28;2372;-83
2021/01/28 15:11:41;;;;;;;;;;;6.80;99.90;;;5.71;93.50;94246.28;10374171;28;2242;-85
2021/01/28 15:16:43;;;;;;;;;;;6.80;99.90;;;5.81;93.67;94240.88;10370656;28;2096;-83
2021/01/28 15:21:46;;;;;;;;;;;6.90;99.90;;;5.90;92.66;94268.50;10366492;28;2175;-86
2021/01/28 15:26:48;;;;;;;;;;;6.90;99.90;;;5.89;92.65;94264.25;10373251;28;1990;-86
2021/01/28 15:31:50;;;;;;;;;;;6.90;99.90;;;5.93;92.78;94249.31;10394114;28;1966;-85
2021/01/28 15:36:52;;;;;;;;;;;7.00;99.90;;;6.00;93.29;94249.00;10402542;28;2181;-86
2021/01/28 15:41:55;;;;;;;;;;;7.00;99.90;;;6.07;92.58;94251.34;10352762;28;2040;-84
2021/01/28 15:46:57;;;;;;;;;;;7.60;99.90;;;6.13;92.04;94253.66;10393399;28;2189;-84
2021/01/28 15:52:03;;;;;;;;;;;7.10;99.90;;;6.13;92.79;94259.00;10386160;28;2300;-84
2021/01/28 15:57:05;;;;;;;;;;;8.50;99.90;;;6.18;92.76;94255.50;10377009;28;2321;-83
2021/01/28 16:07:46;;;;;;;;;;;7.20;99.90;;;6.25;92.42;94277.28;10393633;28;2183;-85
2021/01/28 16:12:48;;;;;;;;;;;7.80;99.90;;;6.31;91.69;94286.84;10368698;28;2249;-84
2021/01/28 16:17:53;;;;;;;;;;;7.30;99.90;;;6.37;91.64;94284.91;10381857;28;2308;-83
2021/01/28 16:22:59;;;;;;;;;;;7.40;99.90;;;6.36;92.38;94289.47;10364079;28;2333;-85
2021/01/28 16:28:21;;;;;;;;;;;8.40;99.90;;;6.35;92.50;94295.84;10387475;28;2332;-84
2021/01/28 16:33:23;;;;;;;;;;;7.40;99.90;;;6.40;91.94;94306.47;10367319;28;2048;-83
2021/01/28 16:38:25;;;;;;;;;;;7.40;99.90;;;6.41;92.69;94294.72;10374475;28;2272;-83
2021/01/28 16:43:37;;;;;;;;;;;7.40;99.90;;;6.43;92.16;94291.78;10404253;28;1851;-85
2021/01/28 16:48:52;;;;;;;;;;;8.20;99.90;;;6.46;92.60;94300.00;10378855;28;2297;-83
2021/01/28 16:54:19;;;;;;;;;;;8.80;99.90;;;6.49;92.33;94310.16;10379782;28;2285;-83
2021/01/28 16:59:23;;;;;;;;;;;8.70;99.90;;;6.55;92.39;94323.41;10349275;28;2271;-82
2021/01/28 17:04:26;;;;;;;;;;;8.60;99.90;;;6.53;92.33;94314.91;10359558;28;2416;-82
2021/01/28 17:09:35;;;;;;;;;;;8.30;99.90;;;6.47;93.03;94306.94;10369666;28;2369;-84
2021/01/28 17:20:38;;;;;;;;;;;;;;;;;;;;;
2021/01/28 17:31:22;;;;;;;;;;;7.70;99.90;;;6.71;91.84;94354.22;10369343;28;2262;-85
2021/01/28 17:36:35;;;;;;;;;;;9.10;99.90;;;6.70;92.37;94368.66;10388513;28;2182;-83
2021/01/28 17:41:39;;;;;;;;;;;7.70;99.90;;;6.66;92.91;94375.63;10389319;28;2293;-83
2021/01/28 17:46:41;;;;;;;;;;;8.60;99.90;;;6.58;93.52;94371.72;10382865;28;2257;-84
2021/01/28 17:51:44;;;;;;;;;;;8.60;99.90;;;6.59;94.53;94420.56;10405380;28;2313;-84
2021/01/28 17:57:00;;;;;;;;;;;7.60;99.90;;;6.56;94.63;94415.81;10417101;28;1951;-84
2021/01/28 18:02:26;;;;;;;;;;;8.30;99.90;;;6.49;95.48;94406.25;10391372;28;2260;-85
2021/01/28 18:07:31;;;;;;;;;;;7.50;99.90;;;6.56;94.92;94381.09;10397634;28;1574;-85
2021/01/28 18:12:43;;;;;;;;;;;8.60;99.90;;;6.55;95.50;94414.19;10376007;28;1973;-85
2021/01/28 18:17:50;;;;;;;;;;;7.60;99.90;;;6.62;94.51;94428.03;10393405;28;1902;-86
2021/01/28 18:23:15;;;;;;;;;;;8.80;99.90;;;6.57;94.44;94422.72;10411888;28;1642;-86
2021/01/28 18:28:32;;;;;;;;;;;8.70;99.90;;;6.61;94.54;94440.56;10392718;28;1097;-86
2021/01/28 18:33:35;;;;;;;;;;;8.10;99.90;;;6.64;94.88;94436.53;10389604;28;1609;-85
2021/01/28 18:38:48;;;;;;;;;;;7.10;99.90;;;6.66;94.40;94445.84;10384925;28;1967;-85
2021/01/28 18:43:59;;;;;;;;;;;9.30;99.90;;;6.78;94.10;94424.13;10383951;28;1754;-88
2021/01/28 18:49:05;;;;;;;;;;;7.80;99.90;;;6.82;93.17;94427.81;10368499;28;1595;-86
2021/01/28 18:54:09;;;;;;;;;;;9.30;99.90;;;6.87;92.59;94438.47;10373922;28;1672;-86
2021/01/28 18:59:11;;;;;;;;;;;7.90;99.90;;;6.86;92.80;94455.56;10406112;28;1948;-85
2021/01/28 19:04:13;;;;;;;;;;;7.90;99.90;;;6.86;93.00;94465.44;10377710;28;1388;-85
2021/01/28 19:09:17;;;;;;;;;;;7.90;99.90;;;6.86;93.31;94474.25;10378368;28;1682;-86
2021/01/28 19:14:19;;;;;;;;;;;7.90;99.90;;;6.84;93.08;94463.06;10397432;28;1257;-86
2021/01/28 19:19:21;;;;;;;;;;;7.90;99.90;;;6.83;93.22;94474.81;10369504;28;1989;-85
2021/01/28 19:24:24;;;;;;;;;;;7.90;99.90;;;6.84;92.81;94481.75;10420924;28;1485;-85
2021/01/28 19:29:25;;;;;;;;;;;7.90;99.90;;;6.88;91.85;94484.66;10403543;28;1318;-85
2021/01/28 19:34:27;;;;;;;;;;;9.00;99.90;;;6.94;91.68;94492.34;10401104;28;1395;-87
2021/01/28 19:39:29;;;;;;;;;;;8.00;99.90;;;7.04;92.16;94478.88;10409716;28;1894;-86
2021/01/28 19:44:31;;;;;;;;;;;8.10;99.90;;;7.07;92.09;94490.91;10377116;28;1697;-87
2021/01/28 19:49:34;;;;;;;;;;;8.10;99.90;;;7.05;92.51;94490.38;10362386;28;1617;-86
2021/01/28 19:54:54;;;;;;;;;;;8.00;99.90;;;7.12;92.76;94498.03;10390928;28;1223;-85
2021/01/28 19:59:55;;;;;;;;;;;8.10;99.90;;;6.99;92.36;94505.66;10388944;28;1967;-87
2021/01/28 20:04:58;;;;;;;;;;;8.10;99.90;;;6.98;92.85;94504.06;10369513;28;1154;-86
2021/01/28 20:10:00;;;;;;;;;;;8.10;99.90;;;7.04;92.11;94494.91;10398953;28;1743;-86
2021/01/28 20:15:05;;;;;;;;;;;8.10;99.90;;;6.96;92.26;94510.75;10392386;28;1668;-85
2021/01/28 20:20:07;;;;;;;;;;;8.10;99.90;;;6.88;92.71;94498.03;10378923;28;1883;-86
2021/01/28 20:25:09;;;;;;;;;;;8.50;99.90;;;6.91;92.51;94522.28;10375927;28;1693;-86
2021/01/28 20:30:11;;;;;;;;;;;8.60;99.90;;;6.86;92.74;94537.56;10389304;28;1606;-86
2021/01/28 20:35:13;;;;;;;;;;;7.90;99.90;;;6.83;92.53;94528.25;10390119;28;1221;-87
2021/01/28 20:40:15;;;;;;;;;;;7.90;99.90;;;6.83;92.32;94533.59;10371256;28;1923;-85
2021/01/28 20:45:17;;;;;;;;;;;7.90;99.90;;;6.80;92.57;94530.66;10366786;28;1436;-87
2021/01/28 20:50:19;;;;;;;;;;;9.10;99.90;;;6.78;92.47;94541.63;10384799;28;1348;-86
2021/01/28 20:55:21;;;;;;;;;;;9.70;99.90;;;6.82;92.23;94540.00;10383278;28;1561;-86
2021/01/28 21:00:23;;;;;;;;;;;7.90;99.90;;;6.83;92.99;94544.28;10384519;28;1918;-86
2021/01/28 21:05:25;;;;;;;;;;;8.50;99.90;;;6.87;91.93;94556.00;10420591;28;1169;-86
2021/01/28 21:10:27;;;;;;;;;;;7.90;99.90;;;6.95;92.01;94547.38;10410049;28;1281;-87
2021/01/28 21:15:31;;;;;;;;;;;7.90;99.90;;;6.99;91.85;94540.38;10395955;28;1431;-84
2021/01/28 21:20:33;;;;;;;;;;;8.00;99.90;;;7.09;90.59;94536.03;10418479;28;1966;-86
2021/01/28 21:25:35;;;;;;;;;;;8.10;99.90;;;6.99;90.93;94556.41;10403054;28;1625;-86
2021/01/28 21:30:37;;;;;;;;;;;8.20;99.90;;;7.01;90.74;94554.28;10404271;28;1611;-85
2021/01/28 21:35:39;;;;;;;;;;;8.10;99.90;;;7.11;90.36;94552.56;10399331;28;1122;-86
2021/01/28 21:40:43;;;;;;;;;;;8.10;99.90;;;7.11;90.04;94565.94;10400691;28;1961;-87
2021/01/28 21:45:45;;;;;;;;;;;8.20;99.90;;;7.10;90.51;94551.78;10400176;28;1547;-87
2021/01/28 21:50:52;;;;;;;;;;;8.20;99.90;;;6.99;90.42;94567.09;10385596;28;1502;-85
2021/01/28 21:55:54;;;;;;;;;;;8.20;99.90;;;6.94;90.92;94566.38;10400912;28;1531;-86
2021/01/28 22:00:56;;;;;;;;;;;8.80;99.90;;;6.97;90.75;94571.94;10372406;28;1906;-87
2021/01/28 22:05:58;;;;;;;;;;;8.00;99.90;;;6.98;90.57;94578.88;10381223;28;1531;-87
2021/01/28 22:11:03;;;;;;;;;;;8.00;99.90;;;7.07;90.49;94588.97;10369861;28;1324;-83
2021/01/28 22:16:06;;;;;;;;;;;8.60;99.90;;;7.10;90.26;94588.41;10382742;28;1929;-86
2021/01/28 22:21:08;;;;;;;;;;;8.10;99.90;;;7.11;89.44;94601.47;10405874;28;1894;-85
2021/01/28 22:26:10;;;;;;;;;;;8.50;99.90;;;7.13;89.70;94587.84;10396768;28;1683;-85
2021/01/28 22:31:12;;;;;;;;;;;8.20;99.90;;;7.14;89.06;94608.16;10398758;28;1579;-85
2021/01/28 22:36:14;;;;;;;;;;;8.30;99.90;;;7.16;89.23;94609.44;10386986;28;1599;-84
2021/01/28 22:41:16;;;;;;;;;;;8.20;99.90;;;7.05;90.17;94608.72;10411232;28;2340;-85
2021/01/28 22:46:18;;;;;;;;;;;8.20;99.90;;;7.00;90.85;94610.66;10403593;28;2425;-86
2021/01/28 22:51:20;;;;;;;;;;;8.10;99.90;;;6.94;91.13;94599.22;10392068;28;2411;-86
2021/01/28 22:56:22;;;;;;;;;;;8.00;99.90;;;6.92;90.99;94606.69;10370048;28;1861;-86
2021/01/28 23:01:24;;;;;;;;;;;8.00;99.90;;;6.91;90.04;94601.63;10365178;28;1991;-86
2021/01/28 23:06:26;;;;;;;;;;;8.00;99.90;;;6.95;89.66;94616.84;10388764;28;2285;-87
2021/01/28 23:11:28;;;;;;;;;;;8.00;99.90;;;6.94;89.06;94598.41;10372397;28;2258;-87
2021/01/28 23:16:31;;;;;;;;;;;8.10;99.90;;;6.98;88.77;94610.13;10371185;28;1894;-87
2021/01/28 23:21:33;;;;;;;;;;;8.00;99.90;;;6.90;89.48;94584.81;10398198;28;2456;-87
2021/01/28 23:26:35;;;;;;;;;;;8.60;99.90;;;6.93;89.12;94600.28;10380641;28;2222;-88
2021/01/28 23:31:37;;;;;;;;;;;8.10;99.90;;;6.95;88.90;94595.47;10381286;28;1914;-88
2021/01/28 23:36:39;;;;;;;;;;;9.50;99.90;;;6.94;88.73;94603.75;10365880;28;2370;-88
2021/01/28 23:41:41;;;;;;;;;;;8.00;99.90;;;6.96;88.88;94605.06;10386629;28;2106;-87
2021/01/28 23:46:43;;;;;;;;;;;8.00;99.90;;;6.97;89.32;94603.19;10366922;28;1713;-88
2021/01/28 23:51:46;;;;;;;;;;;8.10;99.90;;;6.90;89.20;94592.81;10379478;28;2289;-88
2021/01/28 23:56:48;;;;;;;;;;;8.00;99.90;;;6.90;90.06;94592.81;10391689;28;1678;-87
